Time;durP1;ratioP1;P1;durP2;ratioP2;P2;SDS_P1;SDS_P2;PMS_P1;PMS_P2;Temp;Humidity;BMP_temperature;BMP_pressure;BME280_temperature;BME280_humidity;BME280_pressure;Samples;Min_cycle;Max_cycle;Signal;HPM_P1;HPM_P2
2023/06/23 00:00:09;;;;;;;3.65;3.30;;;;;;;17.97;58.04;99926.25;10400569;28;20727;-66
2023/06/23 00:05:11;;;;;;;3.72;3.42;;;;;;;18.48;56.27;99937.59;10405119;28;20287;-65
2023/06/23 00:10:12;;;;;;;4.00;3.53;;;;;;;20.01;53.30;99938.44;10403962;28;20285;-67
2023/06/23 00:15:15;;;;;;;5.07;4.43;;;;;;;18.20;57.15;99970.72;10409328;28;20271;-66
2023/06/23 00:20:19;;;;;;;7.55;4.70;;;;;;;17.57;58.93;100002.53;10410367;28;20205;-66
2023/06/23 00:25:21;;;;;;;4.40;4.00;;;;;;;20.14;53.86;99976.16;10409505;28;20220;-66
2023/06/23 00:30:23;;;;;;;4.72;3.80;;;;;;;19.90;54.20;100008.03;10417575;28;20212;-66
2023/06/23 00:35:25;;;;;;;4.00;3.60;;;;;;;18.58;56.33;100067.09;10406785;28;20212;-66
2023/06/23 00:40:28;;;;;;;4.18;3.47;;;;;;;21.41;50.65;100050.09;10401030;28;20269;-65
2023/06/23 00:45:29;;;;;;;4.10;3.70;;;;;;;19.44;54.14;100108.28;10406679;28;20285;-66
2023/06/23 00:50:32;;;;;;;4.43;4.03;;;;;;;20.21;53.24;100077.41;10406288;28;20201;-66
2023/06/23 00:55:37;;;;;;;4.35;3.95;;;;;;;20.83;52.81;100094.84;10414836;28;20233;-66
2023/06/23 01:00:40;;;;;;;4.95;4.45;;;;;;;20.67;52.75;100120.94;10407838;28;20236;-66
2023/06/23 01:05:42;;;;;;;5.32;4.50;;;;;;;20.34;53.02;100116.22;10400181;28;20445;-67
2023/06/23 01:10:56;;;;;;;6.72;5.75;;;;;;;20.11;53.83;100113.31;10406967;28;20208;-67
2023/06/23 01:16:03;;;;;;;6.45;5.78;;;;;;;19.92;54.78;100111.81;10401046;28;20224;-67
2023/06/23 01:21:10;;;;;;;6.88;6.18;;;;;;;18.92;56.30;100140.63;10401769;28;20220;-67
2023/06/23 01:26:30;;;;;;;7.80;7.00;;;;;;;20.34;53.96;100079.00;10406169;28;20232;-67
2023/06/23 01:31:51;;;;;;;7.95;6.88;;;;;;;19.90;55.40;100103.91;10410053;28;20561;-66
2023/06/23 01:37:07;;;;;;;9.32;7.70;;;;;;;19.93;54.53;100100.72;10406115;28;20220;-67
2023/06/23 01:42:14;;;;;;;8.05;7.22;;;;;;;19.50;55.03;100109.22;10401010;28;20215;-67
2023/06/23 01:47:26;;;;;;;8.80;7.90;;;;;;;21.09;52.56;100054.47;10404226;28;20236;-67
2023/06/23 01:52:30;;;;;;;8.50;7.60;;;;;;;22.35;49.84;100069.22;10400792;28;20223;-67
2023/06/23 01:57:35;;;;;;;8.90;7.63;;;;;;;20.68;52.99;100145.16;10404887;28;20240;-65
2023/06/23 02:02:39;;;;;;;8.73;6.20;;;;;;;20.60;53.89;100115.66;10406706;28;20247;-67
2023/06/23 02:07:45;;;;;;;6.90;5.80;;;;;;;19.45;55.91;100147.09;10402829;28;20884;-66
2023/06/23 02:12:49;;;;;;;5.50;4.68;;;;;;;20.15;54.63;100110.94;10401919;28;20771;-67
2023/06/23 02:17:53;;;;;;;6.25;5.22;;;;;;;19.89;54.70;100113.13;10410463;28;20230;-68
2023/06/23 02:22:55;;;;;;;5.22;4.72;;;;;;;19.77;55.06;100125.88;10395908;28;20209;-68
2023/06/23 02:27:58;;;;;;;8.07;5.70;;;;;;;19.66;55.67;100103.13;10402143;28;20706;-67
2023/06/23 02:33:00;;;;;;;8.02;6.47;;;;;;;18.49;58.25;100123.50;10394276;28;20212;-67
2023/06/23 02:38:07;;;;;;;9.85;6.63;;;;;;;19.62;55.78;100093.81;10403282;28;20228;-67
2023/06/23 02:43:31;;;;;;;7.03;6.32;;;;;;;20.33;54.30;100084.66;10398171;28;20217;-67
2023/06/23 02:48:39;;;;;;;9.95;6.47;;;;;;;18.53;57.71;100165.34;10404837;28;20232;-68
2023/06/23 02:53:48;;;;;;;9.30;7.28;;;;;;;19.91;55.15;100130.00;10394080;28;20208;-67
2023/06/23 02:58:53;;;;;;;9.52;7.68;;;;;;;20.94;53.45;100096.69;10402706;28;20228;-67
2023/06/23 03:03:56;;;;;;;9.82;8.43;;;;;;;19.73;55.01;100158.09;10390081;28;20240;-66
2023/06/23 03:08:58;;;;;;;12.85;9.32;;;;;;;20.41;53.61;100139.50;10400352;28;20237;-67
2023/06/23 03:14:00;;;;;;;10.93;9.82;;;;;;;20.03;54.14;100161.75;10391253;28;20208;-68
2023/06/23 03:19:15;;;;;;;11.93;10.68;;;;;;;19.53;54.82;100188.28;10407966;28;20244;-66
2023/06/23 03:24:20;;;;;;;14.00;12.40;;;;;;;20.66;52.83;100155.44;10390317;28;20255;-68
2023/06/23 03:29:23;;;;;;;14.98;13.57;;;;;;;20.33;54.05;100168.91;10400576;28;20251;-66
2023/06/23 03:34:29;;;;;;;15.80;14.13;;;;;;;20.44;54.20;100157.19;10396632;28;20209;-66
2023/06/23 03:39:37;;;;;;;18.08;14.55;;;;;;;20.24;53.79;100199.16;10394367;28;20224;-67
2023/06/23 03:44:47;;;;;;;16.55;14.95;;;;;;;20.15;53.80;100207.91;10401693;28;20235;-67
2023/06/23 03:49:56;;;;;;;18.90;17.00;;;;;;;20.34;53.61;100211.34;10403198;28;20221;-67
2023/06/23 03:55:01;;;;;;;18.30;16.40;;;;;;;20.72;52.82;100196.34;10417188;28;20287;-66
2023/06/23 04:00:04;;;;;;;19.38;17.42;;;;;;;19.28;54.98;100269.03;10413688;28;20328;-67
2023/06/23 04:05:07;;;;;;;21.60;18.88;;;;;;;18.89;56.25;100263.09;10401802;28;20734;-65
2023/06/23 04:10:10;;;;;;;22.73;20.63;;;;;;;19.51;55.25;100233.81;10402187;28;20382;-66
2023/06/23 04:15:15;;;;;;;25.40;22.90;;;;;;;19.50;55.07;100239.47;10403676;28;20258;-66
2023/06/23 04:20:20;;;;;;;23.85;21.02;;;;;;;20.40;52.76;100219.34;10403998;28;20196;-66
2023/06/23 04:25:23;;;;;;;24.60;22.23;;;;;;;20.08;53.93;100241.47;10400834;28;20306;-67
2023/06/23 04:30:28;;;;;;;25.40;22.90;;;;;;;19.85;53.78;100261.28;10408309;28;20204;-66
2023/06/23 04:35:30;;;;;;;27.00;24.30;;;;;;;19.48;54.79;100283.13;10399383;28;20212;-65
2023/06/23 04:40:41;;;;;;;28.33;25.27;;;;;;;19.34;55.70;100281.69;10417142;28;20236;-65
2023/06/23 04:45:53;;;;;;;27.83;25.02;;;;;;;20.13;53.44;100265.19;10401127;28;21456;-66
2023/06/23 04:50:58;;;;;;;28.55;25.70;;;;;;;20.31;53.30;100272.41;10405251;28;20212;-67
2023/06/23 04:56:05;;;;;;;28.27;25.42;;;;;;;19.67;54.42;100283.94;10406664;28;20225;-66
2023/06/23 05:01:10;;;;;;;28.58;25.63;;;;;;;19.88;53.91;100303.44;10408615;28;20227;-68
2023/06/23 05:06:16;;;;;;;29.40;26.40;;;;;;;20.86;51.79;100299.16;10404919;28;20243;-66
2023/06/23 05:11:20;;;;;;;28.92;25.95;;;;;;;19.81;53.04;100357.03;10398771;28;20578;-66
2023/06/23 05:16:23;;;;;;;29.20;26.23;;;;;;;19.48;54.66;100337.41;10405443;28;20716;-65
2023/06/23 05:21:27;;;;;;;29.77;26.58;;;;;;;20.36;52.94;100310.56;10411978;28;20215;-64
2023/06/23 05:26:33;;;;;;;29.55;26.55;;;;;;;20.28;52.82;100349.81;10403534;28;20228;-65
2023/06/23 05:31:40;;;;;;;29.50;26.40;;;;;;;19.78;54.04;100350.19;10405220;28;20215;-66
2023/06/23 05:36:44;;;;;;;26.98;24.33;;;;;;;20.22;52.62;100347.19;10396633;28;20228;-65
2023/06/23 05:41:46;;;;;;;28.80;25.90;;;;;;;21.44;50.50;100314.72;10397896;28;20270;-66
2023/06/23 05:46:53;;;;;;;28.58;25.55;;;;;;;20.78;50.81;100383.03;10399284;28;20220;-66
2023/06/23 05:51:58;;;;;;;28.25;25.25;;;;;;;20.77;52.23;100311.50;10401920;28;20213;-66
2023/06/23 05:57:03;;;;;;;27.40;24.55;;;;;;;19.55;53.83;100340.91;10396389;28;20319;-66
2023/06/23 06:02:09;;;;;;;27.17;24.38;;;;;;;20.35;52.22;100318.97;10401661;28;20216;-66
2023/06/23 06:07:13;;;;;;;25.60;23.00;;;;;;;18.77;54.58;100404.81;10397350;28;20322;-66
2023/06/23 06:12:16;;;;;;;26.50;23.77;;;;;;;19.98;52.02;100384.34;10395262;28;20213;-65
2023/06/23 06:17:20;;;;;;;24.05;21.63;;;;;;;20.63;51.26;100343.53;10398178;28;20221;-66
2023/06/23 06:22:24;;;;;;;23.20;20.63;;;;;;;19.07;53.39;100400.59;10402145;28;20209;-65
2023/06/23 06:27:27;;;;;;;24.05;21.33;;;;;;;20.18;50.75;100395.75;10400241;28;20236;-65
2023/06/23 06:32:32;;;;;;;20.63;18.33;;;;;;;20.10;50.70;100409.66;10402756;28;20257;-65
2023/06/23 06:37:41;;;;;;;21.52;18.38;;;;;;;20.39;50.42;100407.13;10407415;28;20650;-65
2023/06/23 06:42:43;;;;;;;20.73;18.73;;;;;;;19.53;51.35;100435.25;10400538;28;20218;-66
2023/06/23 06:47:48;;;;;;;19.83;17.73;;;;;;;18.72;52.12;100483.25;10402944;28;20248;-66
2023/06/23 06:52:51;;;;;;;17.15;15.45;;;;;;;19.78;50.26;100437.06;10401126;28;20641;-66
2023/06/23 06:57:53;;;;;;;18.42;15.45;;;;;;;20.09;49.87;100430.56;10408688;28;20225;-65
2023/06/23 07:02:57;;;;;;;17.30;15.32;;;;;;;20.85;48.11;100438.97;10394187;28;20268;-66
2023/06/23 07:07:59;;;;;;;16.83;15.10;;;;;;;21.18;48.50;100425.78;10401531;28;20224;-66
2023/06/23 07:13:01;;;;;;;16.85;15.05;;;;;;;20.43;49.55;100463.50;10394399;28;20605;-65
2023/06/23 07:18:03;;;;;;;18.33;15.57;;;;;;;20.93;47.39;100480.44;10400267;28;20776;-66
2023/06/23 07:23:05;;;;;;;18.73;15.23;;;;;;;19.90;49.13;100503.09;10409831;28;20240;-66
2023/06/23 07:28:06;;;;;;;15.30;13.73;;;;;;;20.38;48.79;100490.56;10401544;28;20236;-65
2023/06/23 07:33:08;;;;;;;18.05;12.20;;;;;;;21.03;47.38;100476.06;10404255;28;20794;-65
2023/06/23 07:38:10;;;;;;;13.82;12.43;;;;;;;21.51;46.81;100440.59;10410058;28;20477;-66
2023/06/23 07:43:13;;;;;;;19.25;13.30;;;;;;;20.90;47.95;100516.28;10406955;28;20209;-66
2023/06/23 07:48:14;;;;;;;13.88;12.35;;;;;;;21.49;47.06;100475.41;10407934;28;20232;-66
2023/06/23 07:53:16;;;;;;;13.18;11.77;;;;;;;20.88;47.12;100532.84;10401788;28;20209;-65
2023/06/23 07:58:18;;;;;;;13.85;12.45;;;;;;;21.42;47.21;100481.84;10400100;28;20279;-66
2023/06/23 08:03:20;;;;;;;13.13;11.60;;;;;;;19.90;47.85;100556.59;10413238;28;20272;-66
2023/06/23 08:08:22;;;;;;;13.20;11.82;;;;;;;20.72;47.94;100523.47;10405195;28;20311;-65
2023/06/23 08:13:24;;;;;;;13.68;12.25;;;;;;;21.22;46.43;100508.56;10399654;28;20216;-66
2023/06/23 08:18:25;;;;;;;13.27;11.43;;;;;;;20.59;47.28;100500.03;10406627;28;20307;-65
2023/06/23 08:23:27;;;;;;;11.85;10.65;;;;;;;22.09;44.92;100493.22;10406139;28;20259;-65
2023/06/23 08:28:34;;;;;;;11.10;10.00;;;;;;;21.05;46.00;100549.28;10405194;28;20228;-66
2023/06/23 08:33:36;;;;;;;13.25;11.23;;;;;;;22.38;45.96;100526.72;10398514;28;20200;-65
2023/06/23 08:38:37;;;;;;;11.55;10.25;;;;;;;22.88;44.43;100503.28;10407906;28;20231;-65
2023/06/23 08:43:44;;;;;;;13.05;11.57;;;;;;;22.08;45.25;100540.63;10402384;28;20299;-66
2023/06/23 08:48:51;;;;;;;12.23;10.88;;;;;;;22.29;44.55;100515.41;10399369;28;20237;-66
2023/06/23 08:53:52;;;;;;;11.13;9.38;;;;;;;21.70;44.76;100545.59;10408416;28;20299;-65
2023/06/23 08:58:55;;;;;;;11.38;10.18;;;;;;;21.32;44.57;100565.97;10401098;28;20240;-66
2023/06/23 09:03:57;;;;;;;9.98;8.98;;;;;;;21.73;45.22;100555.19;10402912;28;20249;-66
2023/06/23 09:08:59;;;;;;;10.68;9.18;;;;;;;23.50;42.93;100532.31;10405738;28;20229;-66
2023/06/23 09:14:06;;;;;;;11.32;9.65;;;;;;;22.78;43.34;100539.44;10402063;28;20211;-66
2023/06/23 09:19:13;;;;;;;11.38;10.00;;;;;;;22.88;43.41;100553.22;10398345;28;20221;-66
2023/06/23 09:24:18;;;;;;;11.57;9.13;;;;;;;24.16;41.23;100532.28;10403493;28;20295;-65
2023/06/23 09:29:26;;;;;;;10.43;9.35;;;;;;;23.01;42.21;100578.53;10399702;28;20256;-66
2023/06/23 09:34:30;;;;;;;9.40;8.40;;;;;;;22.49;42.63;100594.00;10401983;28;20223;-65
2023/06/23 09:39:37;;;;;;;8.30;7.40;;;;;;;22.82;42.74;100531.56;10408042;28;20242;-65
2023/06/23 09:44:41;;;;;;;10.23;7.30;;;;;;;23.96;41.19;100524.69;10396267;28;20212;-66
2023/06/23 09:49:45;;;;;;;8.30;7.13;;;;;;;23.00;41.71;100565.97;10407901;28;20314;-65
2023/06/23 09:54:47;;;;;;;11.50;7.95;;;;;;;24.38;41.05;100501.34;10398684;28;20204;-66
2023/06/23 09:59:52;;;;;;;8.70;7.55;;;;;;;24.54;41.02;100508.59;10392439;28;20285;-66
2023/06/23 10:05:02;;;;;;;8.07;7.28;;;;;;;22.53;42.91;100546.09;10389743;28;20248;-66
2023/06/23 10:10:07;;;;;;;8.65;7.75;;;;;;;22.31;43.81;100515.16;10394467;28;20231;-66
2023/06/23 10:15:12;;;;;;;8.38;7.43;;;;;;;22.46;43.73;100481.88;10387131;28;20300;-66
2023/06/23 10:20:14;;;;;;;8.52;6.90;;;;;;;22.63;42.10;100547.38;10382843;28;20225;-66
2023/06/23 10:25:19;;;;;;;7.63;6.57;;;;;;;23.25;40.64;100528.16;10388669;28;20351;-66
2023/06/23 10:30:22;;;;;;;6.60;5.95;;;;;;;22.74;41.13;100543.75;10401335;28;20581;-66
2023/06/23 10:35:24;;;;;;;6.43;5.57;;;;;;;23.53;41.63;100518.13;10391682;28;20626;-67
2023/06/23 10:40:26;;;;;;;4.70;4.28;;;;;;;23.53;40.89;100499.00;10393869;28;20263;-66
2023/06/23 10:45:28;;;;;;;4.43;3.83;;;;;;;24.42;39.59;100487.97;10393211;28;20225;-67
2023/06/23 10:50:31;;;;;;;5.22;4.00;;;;;;;23.89;38.37;100513.13;10398883;28;20298;-66
2023/06/23 10:55:41;;;;;;;4.43;3.78;;;;;;;24.76;37.99;100510.41;10395310;28;20197;-66
2023/06/23 11:06:34;;;;;;;6.93;3.83;;;;;;;22.57;40.57;100431.06;10513646;27;20862;-66
2023/06/23 11:11:36;;;;;;;3.53;3.22;;;;;;;23.50;39.42;100439.44;10504568;28;20787;-65
2023/06/23 11:16:38;;;;;;;4.32;3.90;;;;;;;23.69;39.89;100458.25;10503474;28;20267;-68
2023/06/23 11:21:41;;;;;;;4.25;3.85;;;;;;;22.39;40.11;100490.22;10507564;28;20284;-66
2023/06/23 11:26:59;;;;;;;5.13;4.05;;;;;;;23.36;39.83;100422.63;10504212;28;20818;-66
2023/06/23 11:32:07;;;;;;;5.18;3.50;;;;;;;24.00;39.11;100454.75;10504382;28;20206;-66
2023/06/23 11:37:09;;;;;;;3.97;3.58;;;;;;;24.61;38.30;100472.78;10501609;28;20234;-66
2023/06/23 11:42:10;;;;;;;3.83;3.10;;;;;;;24.71;38.01;100480.25;10503079;28;20600;-66
2023/06/23 11:47:12;;;;;;;5.47;3.75;;;;;;;23.52;38.70;100502.84;10503504;28;20724;-67
2023/06/23 11:52:14;;;;;;;5.35;3.95;;;;;;;23.34;38.83;100494.94;10495787;28;20199;-66
2023/06/23 11:57:20;;;;;;;3.97;3.55;;;;;;;23.14;38.31;100482.66;10503965;28;20310;-66
2023/06/23 12:02:22;;;;;;;3.83;3.35;;;;;;;23.01;38.86;100483.84;10498215;28;20235;-65
2023/06/23 12:07:28;;;;;;;4.10;3.50;;;;;;;23.78;36.78;100503.16;10505454;28;20223;-66
2023/06/23 12:12:30;;;;;;;3.75;3.33;;;;;;;23.41;37.55;100501.03;10499979;28;20622;-68
2023/06/23 12:17:39;;;;;;;5.53;3.03;;;;;;;24.93;35.89;100491.06;10470743;28;20239;-66
2023/06/23 12:22:41;;;;;;;3.45;2.88;;;;;;;23.61;37.74;100474.00;10473224;28;20231;-66
2023/06/23 12:27:50;;;;;;;4.75;2.80;;;;;;;24.27;35.70;100456.66;10465092;28;20234;-66
2023/06/23 12:32:59;;;;;;;3.65;2.85;;;;;;;24.46;36.41;100428.91;10464687;28;20351;-67
2023/06/23 12:38:01;;;;;;;5.00;2.80;;;;;;;24.34;35.03;100489.25;10472815;28;20219;-66
2023/06/23 12:43:03;;;;;;;4.07;3.15;;;;;;;24.98;34.67;100482.06;10471766;28;20234;-65
2023/06/23 12:48:08;;;;;;;3.83;2.90;;;;;;;25.14;35.11;100450.16;10471014;28;20223;-66
2023/06/23 12:53:10;;;;;;;3.25;2.75;;;;;;;26.63;33.98;100426.56;10474944;28;20639;-66
2023/06/23 12:58:12;;;;;;;2.85;2.65;;;;;;;23.88;36.34;100453.25;10473384;28;20234;-67
2023/06/23 13:03:14;;;;;;;3.08;2.80;;;;;;;24.58;35.84;100436.91;10481989;28;20278;-66
2023/06/23 13:08:20;;;;;;;3.15;2.85;;;;;;;23.53;35.58;100422.53;10475923;28;20232;-66
2023/06/23 13:13:21;;;;;;;4.00;3.00;;;;;;;26.48;33.43;100402.72;10472489;28;20215;-67
2023/06/23 13:18:23;;;;;;;3.17;2.72;;;;;;;26.15;34.13;100409.59;10475697;28;20219;-67
2023/06/23 13:23:25;;;;;;;3.33;2.97;;;;;;;24.75;35.42;100432.16;10469236;28;20238;-66
2023/06/23 13:28:27;;;;;;;3.97;3.10;;;;;;;23.86;35.31;100420.72;10468179;28;20593;-66
2023/06/23 13:33:28;;;;;;;2.63;2.42;;;;;;;24.80;35.02;100417.66;10467510;28;20199;-65
2023/06/23 13:38:30;;;;;;;3.08;2.80;;;;;;;24.75;35.03;100423.94;10468139;28;20231;-66
2023/06/23 13:43:32;;;;;;;2.75;2.38;;;;;;;25.56;34.27;100438.28;10470969;28;20898;-65
2023/06/23 13:48:34;;;;;;;2.53;2.30;;;;;;;24.76;34.19;100447.47;10466018;28;20219;-65
2023/06/23 13:53:38;;;;;;;4.07;2.72;;;;;;;24.40;34.42;100424.50;10467065;28;20199;-65
2023/06/23 13:58:40;;;;;;;4.25;3.05;;;;;;;24.84;34.86;100419.59;10464212;28;20361;-66
2023/06/23 14:03:42;;;;;;;3.17;2.92;;;;;;;24.33;35.04;100370.84;10462726;28;20698;-66
2023/06/23 14:08:44;;;;;;;3.13;2.63;;;;;;;25.12;33.97;100371.00;10465560;28;20234;-67
2023/06/23 14:13:46;;;;;;;3.13;2.72;;;;;;;24.98;34.30;100447.31;10464053;28;20210;-66
2023/06/23 14:18:48;;;;;;;4.28;2.75;;;;;;;25.77;34.02;100387.91;10467532;28;20915;-67
2023/06/23 14:23:50;;;;;;;2.72;2.50;;;;;;;25.68;33.79;100410.63;10466343;28;20519;-66
2023/06/23 14:28:52;;;;;;;3.25;2.75;;;;;;;25.59;34.31;100430.34;10469489;28;20226;-65
2023/06/23 14:33:53;;;;;;;3.33;2.67;;;;;;;25.52;33.64;100431.69;10469793;28;20199;-66
2023/06/23 14:38:55;;;;;;;3.40;3.00;;;;;;;25.02;33.09;100464.88;10463013;28;20281;-67
2023/06/23 14:43:57;;;;;;;3.40;2.65;;;;;;;27.10;32.01;100433.59;10463111;28;20274;-66
2023/06/23 14:48:59;;;;;;;3.00;2.67;;;;;;;27.22;33.19;100425.06;10470016;28;20251;-66
2023/06/23 14:54:01;;;;;;;2.70;2.50;;;;;;;26.07;32.13;100459.50;10466323;28;20212;-66
2023/06/23 14:59:02;;;;;;;2.63;2.30;;;;;;;27.11;32.57;100421.50;10466166;28;20239;-66
2023/06/23 15:04:04;;;;;;;2.92;2.35;;;;;;;26.03;31.99;100437.28;10465980;28;20736;-66
2023/06/23 15:09:06;;;;;;;2.78;2.55;;;;;;;26.28;32.39;100420.03;10468006;28;20709;-66
2023/06/23 15:14:08;;;;;;;3.15;2.85;;;;;;;26.55;32.12;100447.19;10466011;28;20207;-67
2023/06/23 15:19:12;;;;;;;2.67;2.42;;;;;;;26.25;33.13;100415.09;10466364;28;20234;-66
2023/06/23 15:24:14;;;;;;;3.25;2.83;;;;;;;25.52;33.08;100416.06;10465639;28;20713;-66
2023/06/23 15:29:16;;;;;;;2.88;2.50;;;;;;;26.16;33.58;100403.81;10455342;28;20227;-67
2023/06/23 15:34:17;;;;;;;2.25;2.08;;;;;;;26.29;32.75;100413.44;10464024;28;20288;-66
2023/06/23 15:39:20;;;;;;;3.22;2.42;;;;;;;26.29;32.19;100421.69;10460181;28;20235;-66
2023/06/23 15:44:21;;;;;;;3.17;2.53;;;;;;;25.44;32.39;100454.97;10470545;28;20913;-66
2023/06/23 15:49:25;;;;;;;2.70;2.50;;;;;;;26.65;31.44;100457.28;10465292;28;20297;-66
2023/06/23 15:54:27;;;;;;;2.47;2.28;;;;;;;26.75;31.91;100429.03;10471790;28;20199;-67
2023/06/23 15:59:32;;;;;;;2.40;2.20;;;;;;;26.13;32.13;100429.06;10474874;28;20630;-65
2023/06/23 16:04:33;;;;;;;3.03;2.30;;;;;;;25.57;32.64;100448.13;10472412;28;20239;-66
2023/06/23 16:09:35;;;;;;;3.58;2.60;;;;;;;27.11;32.74;100445.41;10470395;28;20307;-67
2023/06/23 16:14:37;;;;;;;2.05;1.90;;;;;;;25.79;32.18;100454.25;10464616;28;20207;-66
2023/06/23 16:19:39;;;;;;;2.20;2.05;;;;;;;26.34;32.82;100424.41;10471623;28;20705;-66
2023/06/23 16:24:41;;;;;;;5.10;2.72;;;;;;;27.57;32.53;100401.25;10474222;28;20231;-66
2023/06/23 16:29:43;;;;;;;2.85;2.55;;;;;;;27.19;32.61;100422.84;10466757;28;20407;-66
2023/06/23 16:34:45;;;;;;;2.35;2.15;;;;;;;27.25;31.85;100415.44;10471271;28;20215;-68
2023/06/23 16:39:47;;;;;;;2.50;2.30;;;;;;;25.48;32.58;100417.69;10463130;28;20231;-65
2023/06/23 16:44:49;;;;;;;2.70;2.40;;;;;;;27.97;32.03;100402.09;10465577;28;20269;-68
2023/06/23 16:49:53;;;;;;;2.83;2.55;;;;;;;27.81;32.54;100433.53;10464552;28;20288;-68
2023/06/23 16:54:55;;;;;;;3.45;2.60;;;;;;;27.78;30.90;100475.34;10477625;28;20199;-69
2023/06/23 16:59:56;;;;;;;3.97;2.88;;;;;;;27.81;31.67;100475.59;10465588;28;20554;-68
2023/06/23 17:04:59;;;;;;;3.78;2.45;;;;;;;27.85;31.52;100473.09;10468211;28;20424;-67
2023/06/23 17:10:01;;;;;;;2.45;2.25;;;;;;;26.58;33.15;100487.75;10469167;28;20235;-66
2023/06/23 17:15:03;;;;;;;3.25;2.55;;;;;;;26.67;34.34;100459.75;10467567;28;20250;-68
2023/06/23 17:20:06;;;;;;;3.88;2.53;;;;;;;27.68;32.74;100445.97;10476267;28;20239;-66
2023/06/23 17:25:09;;;;;;;2.53;2.13;;;;;;;27.83;32.38;100453.31;10468001;28;20350;-66
2023/06/23 17:30:12;;;;;;;4.53;2.30;;;;;;;26.91;33.51;100482.00;10469454;28;20322;-67
2023/06/23 17:35:13;;;;;;;3.20;2.45;;;;;;;28.05;33.17;100450.13;10466817;28;20199;-66
2023/06/23 17:40:17;;;;;;;3.38;2.70;;;;;;;28.12;32.62;100474.56;10466400;28;20378;-67
2023/06/23 17:45:19;;;;;;;2.72;2.40;;;;;;;27.18;33.55;100497.31;10467956;28;20300;-68
2023/06/23 17:50:22;;;;;;;3.30;2.38;;;;;;;26.92;34.42;100491.84;10467157;28;20215;-68
2023/06/23 17:55:24;;;;;;;3.70;2.40;;;;;;;26.53;34.25;100489.69;10472621;28;20295;-65
2023/06/23 18:00:26;;;;;;;2.85;2.55;;;;;;;26.16;34.48;100493.50;10470780;28;20672;-66
2023/06/23 18:05:28;;;;;;;2.83;2.50;;;;;;;26.38;33.56;100490.53;10461746;28;20244;-69
2023/06/23 18:10:30;;;;;;;2.55;2.35;;;;;;;27.24;32.84;100488.78;10474545;28;20231;-66
2023/06/23 18:15:31;;;;;;;2.83;2.53;;;;;;;27.81;32.79;100488.53;10462702;28;20232;-65
2023/06/23 18:20:34;;;;;;;2.88;2.50;;;;;;;27.45;33.77;100510.69;10473755;28;20207;-67
2023/06/23 18:25:36;;;;;;;2.83;2.60;;;;;;;26.57;34.24;100497.09;10469900;28;20242;-65
2023/06/23 18:30:38;;;;;;;3.17;2.38;;;;;;;27.26;34.12;100491.25;10477677;28;20697;-67
2023/06/23 18:35:40;;;;;;;2.40;2.10;;;;;;;27.58;33.00;100493.59;10474567;28;20227;-65
2023/06/23 18:40:41;;;;;;;3.20;2.60;;;;;;;27.45;33.20;100511.50;10468468;28;20211;-66
2023/06/23 18:45:43;;;;;;;2.60;2.33;;;;;;;27.25;33.31;100503.34;10462404;28;20654;-66
2023/06/23 18:50:45;;;;;;;2.47;2.22;;;;;;;27.43;33.50;100499.97;10469192;28;20230;-65
2023/06/23 18:55:47;;;;;;;3.03;2.72;;;;;;;27.15;33.17;100515.16;10463147;28;20360;-68
2023/06/23 19:00:48;;;;;;;2.50;2.30;;;;;;;26.75;33.36;100525.09;10468876;28;20859;-68
2023/06/23 19:05:50;;;;;;;2.95;2.63;;;;;;;26.45;33.84;100531.41;10466815;28;20246;-66
2023/06/23 19:10:52;;;;;;;3.95;2.83;;;;;;;26.11;34.49;100537.38;10465654;28;20247;-68
2023/06/23 19:15:54;;;;;;;4.50;2.40;;;;;;;26.82;32.80;100520.16;10467634;28;20946;-68
2023/06/23 19:20:56;;;;;;;3.28;2.55;;;;;;;26.28;34.65;100528.91;10458365;28;20204;-66
2023/06/23 19:25:57;;;;;;;2.88;2.35;;;;;;;25.35;36.00;100528.56;10471019;28;20232;-66
2023/06/23 19:31:00;;;;;;;3.35;2.47;;;;;;;25.47;36.36;100493.59;10465853;28;20224;-67
2023/06/23 19:36:02;;;;;;;2.35;2.15;;;;;;;25.61;35.88;100515.00;10473435;28;20224;-67
2023/06/23 19:41:05;;;;;;;4.28;2.80;;;;;;;25.64;36.50;100528.16;10467300;28;20204;-66
2023/06/23 19:46:07;;;;;;;4.47;2.75;;;;;;;25.65;35.17;100529.81;10464076;28;20224;-66
2023/06/23 19:51:08;;;;;;;3.17;2.58;;;;;;;24.07;37.08;100561.13;10474726;28;20200;-66
2023/06/23 19:56:10;;;;;;;2.78;2.47;;;;;;;23.58;37.48;100545.53;10471190;28;20219;-65
2023/06/23 20:01:17;;;;;;;3.20;2.35;;;;;;;23.53;37.38;100564.56;10468560;28;20268;-66
2023/06/23 20:06:20;;;;;;;3.33;2.55;;;;;;;25.24;36.06;100543.34;10460123;28;20236;-67
2023/06/23 20:11:22;;;;;;;2.67;2.40;;;;;;;24.04;37.40;100577.22;10473577;28;20215;-65
2023/06/23 20:16:23;;;;;;;2.78;2.58;;;;;;;23.18;38.11;100578.53;10470895;28;20230;-65
2023/06/23 20:21:25;;;;;;;2.83;2.40;;;;;;;22.42;38.25;100584.31;10472819;28;20214;-66
2023/06/23 20:26:27;;;;;;;3.20;2.80;;;;;;;23.93;37.30;100535.31;10471879;28;20231;-65
2023/06/23 20:31:29;;;;;;;4.53;2.70;;;;;;;24.62;36.86;100566.63;10466200;28;20723;-72
2023/06/23 20:36:31;;;;;;;2.90;2.40;;;;;;;24.91;37.28;100572.63;10473998;28;20224;-72
2023/06/23 20:41:32;;;;;;;3.17;2.88;;;;;;;23.41;39.02;100574.78;10471626;28;20260;-72
2023/06/23 20:46:34;;;;;;;4.65;2.35;;;;;;;23.01;37.19;100587.56;10463272;28;20304;-71
2023/06/23 20:51:36;;;;;;;2.70;2.50;;;;;;;22.94;38.98;100618.78;10466124;28;20200;-72
2023/06/23 20:56:38;;;;;;;3.50;2.83;;;;;;;24.41;38.52;100585.59;10476365;28;20689;-71
2023/06/23 21:01:39;;;;;;;3.08;2.70;;;;;;;22.96;39.27;100611.19;10473648;28;20207;-71
2023/06/23 21:06:41;;;;;;;4.03;3.08;;;;;;;23.53;38.93;100567.28;10471922;28;20284;-70
2023/06/23 21:11:43;;;;;;;3.70;2.85;;;;;;;24.33;38.94;100573.19;10475480;28;20911;-72
2023/06/23 21:16:45;;;;;;;6.60;2.97;;;;;;;23.07;39.47;100645.78;10474719;28;20312;-70
2023/06/23 21:21:47;;;;;;;4.32;2.72;;;;;;;23.22;41.37;100582.44;10469955;28;21059;-71
2023/06/23 21:26:49;;;;;;;5.07;2.90;;;;;;;23.70;40.62;100586.41;10474527;28;20234;-71
2023/06/23 21:31:51;;;;;;;3.63;3.25;;;;;;;23.54;40.63;100600.91;10466010;28;20232;-70
2023/06/23 21:36:53;;;;;;;3.65;3.17;;;;;;;23.41;41.62;100588.44;10474268;28;20337;-70
2023/06/23 21:41:54;;;;;;;5.05;3.28;;;;;;;23.70;40.57;100580.94;10470784;28;20214;-70
2023/06/23 21:46:57;;;;;;;4.38;3.20;;;;;;;22.95;40.36;100612.28;10467660;28;20232;-71
2023/06/23 21:51:59;;;;;;;4.53;2.90;;;;;;;21.66;41.79;100625.28;10475961;28;20227;-70
2023/06/23 21:57:01;;;;;;;4.45;3.25;;;;;;;20.91;42.21;100597.66;10471661;28;20228;-70
2023/06/23 22:02:03;;;;;;;3.10;2.80;;;;;;;21.46;39.84;100588.38;10470742;28;20267;-71
2023/06/23 22:07:05;;;;;;;3.38;2.90;;;;;;;23.69;37.09;100613.97;10476478;28;20228;-71
2023/06/23 22:12:07;;;;;;;3.47;2.78;;;;;;;22.55;38.30;100645.94;10472448;28;20210;-71
2023/06/23 22:17:09;;;;;;;3.10;2.80;;;;;;;22.38;38.48;100627.59;10472641;28;20714;-71
2023/06/23 22:22:11;;;;;;;3.55;2.97;;;;;;;21.88;39.34;100652.72;10473260;28;20210;-70
2023/06/23 22:27:13;;;;;;;3.08;2.78;;;;;;;21.18;40.31;100616.25;10470886;28;20667;-71
2023/06/23 22:32:15;;;;;;;4.00;2.50;;;;;;;20.33;41.09;100631.75;10459817;28;20211;-72
2023/06/23 22:37:17;;;;;;;4.13;3.25;;;;;;;20.01;41.91;100604.72;10473670;28;20230;-70
2023/06/23 22:42:19;;;;;;;4.60;3.35;;;;;;;19.76;42.65;100596.66;10556124;27;20260;-71
2023/06/23 22:47:21;;;;;;;3.88;2.95;;;;;;;20.17;42.41;100557.09;10555631;27;20246;-70
2023/06/23 22:52:26;;;;;;;3.30;3.00;;;;;;;20.23;42.45;100582.56;10559660;27;20217;-70
2023/06/23 22:57:28;;;;;;;4.35;3.42;;;;;;;20.01;43.11;100598.44;10552422;28;20313;-70
2023/06/23 23:02:30;;;;;;;4.32;3.33;;;;;;;19.33;44.58;100592.91;10556441;28;20279;-71
2023/06/23 23:07:32;;;;;;;3.38;3.08;;;;;;;19.56;43.96;100588.75;10558499;28;20226;-71
2023/06/23 23:12:34;;;;;;;4.35;3.10;;;;;;;22.44;40.36;100549.47;10559541;28;20267;-71